createdAt,value
2022-10-15T00:01:23.942Z,39.38
2022-10-15T00:03:51.589Z,47.25
2022-10-15T00:06:21.600Z,41.58
2022-10-15T00:08:49.144Z,38.75
2022-10-15T00:11:22.564Z,42.80
2022-10-15T00:13:50.985Z,40.20
2022-10-15T00:16:22.009Z,44.47
2022-10-15T00:18:51.630Z,42.95
2022-10-15T00:21:21.307Z,49.60
2022-10-15T00:23:49.896Z,45.40
2022-10-15T00:26:22.943Z,43.90
2022-10-15T00:28:52.035Z,46.20
2022-10-15T00:31:21.060Z,52.53
2022-10-15T00:33:50.188Z,45.47
2022-10-15T00:36:24.197Z,50.00
2022-10-15T00:38:52.593Z,44.65
2022-10-15T00:41:23.594Z,50.58
2022-10-15T00:43:54.246Z,46.85
2022-10-15T00:46:27.021Z,41.83
2022-10-15T00:48:59.320Z,48.28
2022-10-15T00:53:57.931Z,49.88
2022-10-15T00:56:28.460Z,50.92
2022-10-15T00:58:57.061Z,53.67
2022-10-15T01:01:25.703Z,51.30
2022-10-15T01:03:55.537Z,53.30
2022-10-15T01:06:24.011Z,55.60
2022-10-15T01:08:52.602Z,54.33
2022-10-15T01:11:48.298Z,54.20
2022-10-15T01:14:23.922Z,60.42
2022-10-15T01:17:01.545Z,54.67
2022-10-15T01:20:13.937Z,57.65
2022-10-15T01:22:47.312Z,60.00
2022-10-15T01:25:35.885Z,60.33
2022-10-15T01:28:17.824Z,64.63
2022-10-15T01:30:59.343Z,63.15
2022-10-15T01:33:37.777Z,54.38
2022-10-15T01:36:19.108Z,59.53
2022-10-15T01:38:56.876Z,56.67
2022-10-15T01:41:24.285Z,67.30
2022-10-15T01:44:05.594Z,61.72
2022-10-15T01:46:51.560Z,60.03
2022-10-15T01:49:26.094Z,64.07
2022-10-15T01:51:56.814Z,63.38
2022-10-15T01:54:27.335Z,64.05
2022-10-15T01:56:56.282Z,62.40
2022-10-15T01:59:26.791Z,66.78
2022-10-15T02:01:57.608Z,66.95
2022-10-15T02:04:28.815Z,61.33
2022-10-15T02:07:01.505Z,66.45
2022-10-15T02:09:40.865Z,66.43
2022-10-15T02:12:17.286Z,62.92
2022-10-15T02:15:16.755Z,61.55
2022-10-15T02:18:02.293Z,60.53
2022-10-15T02:20:48.581Z,58.65
2022-10-15T02:23:23.225Z,57.08
2022-10-15T02:25:53.465Z,55.90
2022-10-15T02:28:22.759Z,54.20
2022-10-15T02:30:53.787Z,57.08
2022-10-15T02:33:21.805Z,61.65
2022-10-15T02:35:51.693Z,52.50
2022-10-15T02:38:24.251Z,58.75
2022-10-15T02:40:52.506Z,55.63
2022-10-15T02:43:22.085Z,53.30
2022-10-15T02:45:50.535Z,55.47
2022-10-15T02:48:18.235Z,51.03
2022-10-15T02:50:45.713Z,59.20
2022-10-15T02:53:13.175Z,53.95
2022-10-15T02:55:40.618Z,53.38
2022-10-15T02:58:09.030Z,49.72
2022-10-15T03:00:36.496Z,55.40
2022-10-15T03:03:04.118Z,51.03
2022-10-15T03:05:31.877Z,54.63
2022-10-15T03:08:01.041Z,48.78
2022-10-15T03:10:28.576Z,52.55
2022-10-15T03:12:56.001Z,52.60
2022-10-15T03:15:23.470Z,58.53
2022-10-15T03:17:50.896Z,49.47
2022-10-15T03:20:18.695Z,49.35
2022-10-15T03:22:46.159Z,52.78
2022-10-15T03:25:13.864Z,48.53
2022-10-15T03:27:41.298Z,63.45
2022-10-15T03:30:09.518Z,48.25
2022-10-15T03:32:37.036Z,51.47
2022-10-15T03:35:04.990Z,61.40
2022-10-15T03:37:32.754Z,55.22
2022-10-15T03:40:00.212Z,55.92
2022-10-15T03:42:27.666Z,52.33
2022-10-15T03:44:55.126Z,58.13
2022-10-15T03:47:22.601Z,53.78
2022-10-15T03:49:50.035Z,56.67
2022-10-15T03:52:17.925Z,53.22
2022-10-15T03:54:45.496Z,49.47
2022-10-15T03:57:13.704Z,53.28
2022-10-15T03:59:41.206Z,61.40
2022-10-15T04:02:08.690Z,63.75
2022-10-15T04:04:36.197Z,57.05
2022-10-15T04:07:03.626Z,56.13
2022-10-15T04:09:31.127Z,58.10
2022-10-15T04:11:58.643Z,59.50
2022-10-15T04:14:26.102Z,61.88
2022-10-15T04:16:53.707Z,52.15
2022-10-15T04:19:21.159Z,54.58
2022-10-15T04:21:48.682Z,55.92
2022-10-15T04:24:16.117Z,55.92
2022-10-15T04:26:43.597Z,61.70
2022-10-15T04:29:11.084Z,61.13
2022-10-15T04:31:38.583Z,61.78
2022-10-15T04:34:06.193Z,51.08
2022-10-15T04:36:33.672Z,56.25
2022-10-15T04:39:01.325Z,59.20
2022-10-15T04:41:30.691Z,59.42
2022-10-15T04:43:59.123Z,60.10
2022-10-15T04:46:26.738Z,57.40
2022-10-15T04:48:57.644Z,59.15
2022-10-15T04:51:26.391Z,60.03
2022-10-15T04:53:53.856Z,55.72
2022-10-15T04:56:22.713Z,50.33
2022-10-15T04:58:51.225Z,58.15
2022-10-15T05:01:21.100Z,53.88
2022-10-15T05:03:50.103Z,53.58
2022-10-15T05:06:20.600Z,52.60
2022-10-15T05:08:49.849Z,51.50
2022-10-15T05:11:23.535Z,50.03
2022-10-15T05:13:51.723Z,71.38
2022-10-15T05:16:21.587Z,54.75
2022-10-15T05:18:51.814Z,54.83
2022-10-15T05:21:20.315Z,58.78
2022-10-15T05:23:50.018Z,53.90
2022-10-15T05:26:21.166Z,60.97
2022-10-15T05:28:49.069Z,64.03
2022-10-15T05:31:19.538Z,67.47
2022-10-15T05:33:51.385Z,63.40
2022-10-15T05:36:21.790Z,74.80
2022-10-15T05:38:54.475Z,69.53
2022-10-15T05:41:22.946Z,72.97
2022-10-15T05:43:51.907Z,70.82
2022-10-15T05:46:20.734Z,84.75
2022-10-15T05:48:55.804Z,74.07
2022-10-15T05:51:24.401Z,70.68
2022-10-15T05:53:56.370Z,71.30
2022-10-15T05:56:24.415Z,74.38
2022-10-15T05:58:52.711Z,75.93
2022-10-15T06:01:20.504Z,75.10
2022-10-15T06:03:48.389Z,76.47
2022-10-15T06:06:21.545Z,83.90
2022-10-15T06:08:49.920Z,87.53
2022-10-15T06:11:18.123Z,94.85
2022-10-15T06:13:46.515Z,88.53
2022-10-15T06:16:19.348Z,87.93
2022-10-15T06:18:50.587Z,88.25
2022-10-15T06:21:18.103Z,87.45
2022-10-15T06:23:45.570Z,88.28
2022-10-15T06:26:13.439Z,87.97
2022-10-15T06:28:40.946Z,88.03
2022-10-15T06:31:09.004Z,82.47
2022-10-15T06:33:37.353Z,86.68
2022-10-15T06:36:07.918Z,85.00
2022-10-15T06:38:36.018Z,84.43
2022-10-15T06:41:07.904Z,78.60
2022-10-15T06:43:35.848Z,78.95
2022-10-15T06:46:04.210Z,81.35
2022-10-15T06:48:32.693Z,75.15
2022-10-15T06:51:01.572Z,84.60
2022-10-15T06:53:30.647Z,84.47
2022-10-15T06:56:05.287Z,80.05
2022-10-15T06:58:32.741Z,76.20
2022-10-15T07:01:05.325Z,77.10
2022-10-15T07:03:33.268Z,77.25
2022-10-15T07:06:05.754Z,79.18
2022-10-15T07:08:33.643Z,80.57
2022-10-15T07:11:09.260Z,72.53
2022-10-15T07:13:36.920Z,72.90
2022-10-15T07:16:12.224Z,73.07
2022-10-15T07:18:40.342Z,69.22
2022-10-15T07:23:41.839Z,66.72
2022-10-15T07:26:09.407Z,60.85
2022-10-15T07:28:36.909Z,66.30
2022-10-15T07:31:07.086Z,56.92
2022-10-15T07:33:35.502Z,52.60
2022-10-15T07:36:08.919Z,50.95
2022-10-15T07:38:36.766Z,50.42
2022-10-15T07:41:05.652Z,42.58
2022-10-15T07:43:34.331Z,46.08
2022-10-15T07:46:02.478Z,46.88
2022-10-15T07:48:30.531Z,40.45
2022-10-15T07:50:59.413Z,36.28
2022-10-15T07:53:27.667Z,34.15
2022-10-15T07:55:55.318Z,32.25
2022-10-15T07:58:22.787Z,30.85
2022-10-15T08:00:50.223Z,30.73
2022-10-15T08:03:17.684Z,32.45
2022-10-15T08:05:45.341Z,29.70
2022-10-15T08:08:12.892Z,32.10
2022-10-15T08:10:40.383Z,29.65
2022-10-15T08:13:08.078Z,28.90
2022-10-15T08:15:35.627Z,31.02
2022-10-15T08:18:03.122Z,29.52
2022-10-15T08:20:30.581Z,30.55
2022-10-15T08:22:58.290Z,30.15
2022-10-15T08:25:26.242Z,29.45
2022-10-15T08:27:54.709Z,29.92
2022-10-15T08:30:22.344Z,26.63
2022-10-15T08:32:50.211Z,28.67
2022-10-15T08:35:17.799Z,26.77
2022-10-15T08:37:45.301Z,26.25
2022-10-15T08:40:14.898Z,26.90
2022-10-15T08:42:46.245Z,20.38
2022-10-15T08:45:18.786Z,24.93
2022-10-15T08:48:00.050Z,21.50
2022-10-15T08:50:44.197Z,26.85
2022-10-15T08:53:20.550Z,22.48
2022-10-15T08:55:51.937Z,21.33
2022-10-15T08:58:48.483Z,23.02
2022-10-15T09:01:15.974Z,20.70
2022-10-15T09:03:58.340Z,18.60
2022-10-15T09:09:14.850Z,18.35
2022-10-15T09:12:04.777Z,20.33
2022-10-15T09:14:51.242Z,13.75
2022-10-15T09:17:25.294Z,14.70
2022-10-15T09:19:56.101Z,13.40
2022-10-15T09:22:30.760Z,15.60
2022-10-15T09:24:58.579Z,14.38
2022-10-15T09:27:31.374Z,15.63
2022-10-15T09:30:08.183Z,19.33
2022-10-15T09:32:49.463Z,17.60
2022-10-15T09:35:20.480Z,15.15
2022-10-15T09:38:29.631Z,14.52
2022-10-15T09:41:34.565Z,17.08
2022-10-15T09:44:06.973Z,15.23
2022-10-15T09:46:34.954Z,14.50
2022-10-15T09:49:18.756Z,16.58
2022-10-15T09:52:04.022Z,17.65
2022-10-15T09:54:44.554Z,15.27
2022-10-15T09:57:16.015Z,21.83
2022-10-15T10:00:01.042Z,22.65
2022-10-15T10:02:30.027Z,17.33
2022-10-15T10:04:58.032Z,18.88
2022-10-15T10:07:43.954Z,16.77
2022-10-15T10:10:27.151Z,18.95
2022-10-15T10:12:57.744Z,19.90
2022-10-15T10:15:42.361Z,20.58
2022-10-15T10:18:20.712Z,19.95
2022-10-15T10:21:01.496Z,20.33
2022-10-15T10:23:40.178Z,24.38
2022-10-15T10:26:10.264Z,19.52
2022-10-15T10:28:57.086Z,23.02
2022-10-15T10:31:31.223Z,20.55
2022-10-15T10:34:02.309Z,20.42
2022-10-15T10:36:39.461Z,23.77
2022-10-15T10:39:13.975Z,16.17
2022-10-15T10:42:03.055Z,19.75
2022-10-15T10:44:41.241Z,20.95
2022-10-15T10:47:26.438Z,22.67
2022-10-15T10:49:56.438Z,14.73
2022-10-15T10:52:38.477Z,14.93
2022-10-15T10:55:07.443Z,13.38
2022-10-15T10:57:46.558Z,13.63
2022-10-15T11:00:44.463Z,14.57
2022-10-15T11:03:31.451Z,13.13
2022-10-15T11:06:19.679Z,12.50
2022-10-15T11:09:03.182Z,14.60
2022-10-15T11:11:36.934Z,13.82
2022-10-15T11:14:23.613Z,10.88
2022-10-15T11:17:17.194Z,12.23
2022-10-15T11:20:12.529Z,11.15
2022-10-15T11:23:03.088Z,8.48
2022-10-15T11:25:54.767Z,11.95
2022-10-15T11:28:37.604Z,8.30
2022-10-15T11:34:02.862Z,8.35
2022-10-15T11:36:57.856Z,8.40
2022-10-15T11:39:33.915Z,8.05
2022-10-15T11:42:25.390Z,8.70
2022-10-15T11:45:11.830Z,9.27
2022-10-15T11:47:55.899Z,12.15
2022-10-15T11:50:38.301Z,7.78
2022-10-15T11:55:42.557Z,9.18
2022-10-15T11:58:28.892Z,9.07
2022-10-15T12:01:01.371Z,8.52
2022-10-15T12:03:32.569Z,10.38
2022-10-15T12:06:04.782Z,12.63
2022-10-15T12:11:17.411Z,10.70
2022-10-15T12:14:14.048Z,7.90
2022-10-15T12:17:03.795Z,9.13
2022-10-15T12:19:42.881Z,11.02
2022-10-15T12:22:12.214Z,9.63
2022-10-15T12:24:39.740Z,9.13
2022-10-15T12:27:29.641Z,8.30
2022-10-15T12:30:02.896Z,7.57
2022-10-15T12:32:39.063Z,10.98
2022-10-15T12:35:33.636Z,7.07
2022-10-15T12:38:12.051Z,6.25
2022-10-15T12:40:40.854Z,10.48
2022-10-15T12:43:21.423Z,7.60
2022-10-15T12:45:56.158Z,10.93
2022-10-15T12:48:33.105Z,7.13
2022-10-15T12:51:25.101Z,7.20
2022-10-15T12:53:56.232Z,9.07
2022-10-15T12:56:26.378Z,12.02
2022-10-15T12:58:57.795Z,6.93
2022-10-15T13:01:25.345Z,9.15
2022-10-15T13:03:56.251Z,8.70
2022-10-15T13:06:23.657Z,7.68
2022-10-15T13:08:56.178Z,8.25
2022-10-15T13:11:30.969Z,14.15
2022-10-15T13:14:10.450Z,7.50
2022-10-15T13:16:38.046Z,7.38
2022-10-15T13:19:05.669Z,7.03
2022-10-15T13:21:52.346Z,7.60
2022-10-15T13:24:22.050Z,7.35
2022-10-15T13:26:50.729Z,9.35
2022-10-15T13:29:19.977Z,7.35
2022-10-15T13:31:48.286Z,8.98
2022-10-15T13:34:36.112Z,6.80
2022-10-15T13:37:05.731Z,8.43
2022-10-15T13:39:37.521Z,6.53
2022-10-15T13:42:12.547Z,8.00
2022-10-15T13:44:40.946Z,7.20
2022-10-15T13:47:26.420Z,6.07
2022-10-15T13:50:22.439Z,4.78
2022-10-15T13:53:08.480Z,6.28
2022-10-15T13:55:40.012Z,4.28
2022-10-15T13:58:23.513Z,6.18
2022-10-15T14:01:21.186Z,6.78
2022-10-15T14:03:50.856Z,4.40
2022-10-15T14:06:23.028Z,5.85
2022-10-15T14:11:23.901Z,6.07
2022-10-15T14:13:54.229Z,6.15
2022-10-15T14:16:23.021Z,2.75
2022-10-15T14:18:56.461Z,3.65
2022-10-15T14:21:32.103Z,3.45
2022-10-15T14:24:17.588Z,2.70
2022-10-15T14:26:45.677Z,4.32
2022-10-15T14:29:38.399Z,2.47
2022-10-15T14:32:19.754Z,1.73
2022-10-15T14:34:47.303Z,2.60
2022-10-15T14:37:32.844Z,2.05
2022-10-15T14:40:09.801Z,2.38
2022-10-15T14:42:55.787Z,2.33
2022-10-15T14:45:29.524Z,2.13
2022-10-15T14:48:00.376Z,7.00
2022-10-15T14:50:35.073Z,6.95
2022-10-15T14:53:09.449Z,1.40
2022-10-15T14:55:43.516Z,2.25
2022-10-15T14:58:17.361Z,2.30
2022-10-15T15:00:49.188Z,2.40
2022-10-15T15:03:20.607Z,3.20
2022-10-15T15:05:52.734Z,2.65
2022-10-15T15:08:20.863Z,3.58
2022-10-15T15:10:49.397Z,2.47
2022-10-15T15:13:22.376Z,1.58
2022-10-15T15:15:49.983Z,3.97
2022-10-15T15:18:17.978Z,2.42
2022-10-15T15:20:48.216Z,6.93
2022-10-15T15:23:21.637Z,2.53
2022-10-15T15:25:50.082Z,6.20
2022-10-15T15:28:22.661Z,4.90
2022-10-15T15:31:02.437Z,0.63
2022-10-15T15:33:30.038Z,4.20
2022-10-15T15:36:19.176Z,2.08
2022-10-15T15:38:51.093Z,2.08
2022-10-15T15:41:21.545Z,3.75
2022-10-15T15:43:49.960Z,3.42
2022-10-15T15:46:17.548Z,7.63
2022-10-15T15:48:45.193Z,2.67
2022-10-15T15:51:26.679Z,1.95
2022-10-15T15:53:54.578Z,7.53
2022-10-15T15:56:22.703Z,1.38
2022-10-15T15:58:51.284Z,2.75
2022-10-15T16:01:19.966Z,3.17
2022-10-15T16:03:47.598Z,2.17
2022-10-15T16:06:15.149Z,4.30
2022-10-15T16:08:42.716Z,6.55
2022-10-15T16:11:10.453Z,4.25
2022-10-15T16:13:38.194Z,2.47
2022-10-15T16:16:05.961Z,1.55
2022-10-15T16:18:33.478Z,4.15
2022-10-15T16:21:00.947Z,10.48
2022-10-15T16:23:28.533Z,4.30
2022-10-15T16:25:57.657Z,5.13
2022-10-15T16:28:25.177Z,3.58
2022-10-15T16:30:52.739Z,2.55
2022-10-15T16:33:20.300Z,2.80
2022-10-15T16:35:52.803Z,5.93
2022-10-15T16:38:20.294Z,4.25
2022-10-15T16:40:48.262Z,6.00
2022-10-15T16:43:15.774Z,2.97
2022-10-15T16:45:43.251Z,4.28
2022-10-15T16:48:10.823Z,8.07
2022-10-15T16:50:38.274Z,4.30
2022-10-15T16:53:05.825Z,3.90
2022-10-15T16:55:33.291Z,3.58
2022-10-15T16:58:00.765Z,5.05
2022-10-15T17:00:28.309Z,6.70
2022-10-15T17:02:55.994Z,3.30
2022-10-15T17:05:23.433Z,6.18
2022-10-15T17:07:50.950Z,5.85
2022-10-15T17:10:25.604Z,4.95
2022-10-15T17:12:54.099Z,4.43
2022-10-15T17:15:21.730Z,4.43
2022-10-15T17:17:49.410Z,2.40
2022-10-15T17:20:16.912Z,4.05
2022-10-15T17:22:44.360Z,8.48
2022-10-15T17:25:11.879Z,6.90
2022-10-15T17:27:39.373Z,6.13
2022-10-15T17:30:07.635Z,4.93
2022-10-15T17:32:35.188Z,7.35
2022-10-15T17:35:04.049Z,7.13
2022-10-15T17:37:32.063Z,6.55
2022-10-15T17:39:59.971Z,8.73
2022-10-15T17:42:27.786Z,6.80
2022-10-15T17:44:55.410Z,8.02
2022-10-15T17:47:23.005Z,9.10
2022-10-15T17:49:50.649Z,10.80
2022-10-15T17:52:18.169Z,4.78
2022-10-15T17:54:45.883Z,11.20
2022-10-15T17:57:13.365Z,7.75
2022-10-15T17:59:40.807Z,10.25
2022-10-15T18:02:08.362Z,12.57
2022-10-15T18:04:35.830Z,8.45
2022-10-15T18:07:03.274Z,9.18
2022-10-15T18:09:30.821Z,5.82
2022-10-15T18:12:00.419Z,8.57
2022-10-15T18:14:29.240Z,4.72
2022-10-15T18:16:56.775Z,4.85
2022-10-15T18:19:25.792Z,5.97
2022-10-15T18:21:54.175Z,6.72
2022-10-15T18:24:23.196Z,5.82
2022-10-15T18:26:51.649Z,8.52
2022-10-15T18:29:19.963Z,5.60
2022-10-15T18:31:47.807Z,10.27
2022-10-15T18:34:15.800Z,7.35
2022-10-15T18:36:43.645Z,8.57
2022-10-15T18:39:11.763Z,4.72
2022-10-15T18:41:40.266Z,8.15
2022-10-15T18:44:14.855Z,6.95
2022-10-15T18:46:43.891Z,5.45
2022-10-15T18:49:12.674Z,14.80
2022-10-15T18:51:40.188Z,2.53
2022-10-15T18:54:08.693Z,5.15
2022-10-15T18:56:36.300Z,8.18
2022-10-15T18:59:03.859Z,8.05
2022-10-15T19:01:41.660Z,5.38
2022-10-15T19:04:12.289Z,4.72
2022-10-15T19:06:45.355Z,5.05
2022-10-15T19:09:18.810Z,3.97
2022-10-15T19:11:48.564Z,4.00
2022-10-15T19:14:16.609Z,4.18
2022-10-15T19:16:45.669Z,5.50
2022-10-15T19:19:16.282Z,4.05
2022-10-15T19:21:48.542Z,6.05
2022-10-15T19:26:46.455Z,4.25
2022-10-15T19:29:14.138Z,6.43
2022-10-15T19:31:44.889Z,5.82
2022-10-15T19:34:13.265Z,4.03
2022-10-15T19:36:43.597Z,4.07
2022-10-15T19:39:17.280Z,5.53
2022-10-15T19:41:46.130Z,10.77
2022-10-15T19:44:16.778Z,5.00
2022-10-15T19:46:46.061Z,6.80
2022-10-15T19:49:14.471Z,5.45
2022-10-15T19:51:42.026Z,4.80
2022-10-15T19:54:10.509Z,2.63
2022-10-15T19:56:38.075Z,9.95
2022-10-15T19:59:06.910Z,4.50
2022-10-15T20:01:35.188Z,4.38
2022-10-15T20:04:06.109Z,7.15
2022-10-15T20:06:35.944Z,4.57
2022-10-15T20:09:03.577Z,1.80
2022-10-15T20:11:31.076Z,11.43
2022-10-15T20:14:00.143Z,9.65
2022-10-15T20:16:32.483Z,7.20
2022-10-15T20:19:05.605Z,8.48
2022-10-15T20:24:03.893Z,6.68
2022-10-15T20:26:31.691Z,3.72
2022-10-15T20:28:59.886Z,3.45
2022-10-15T20:31:33.762Z,5.05
2022-10-15T20:34:02.419Z,3.58
2022-10-15T20:36:30.510Z,10.25
2022-10-15T20:39:00.625Z,5.13
2022-10-15T20:41:28.564Z,4.65
2022-10-15T20:43:57.254Z,8.10
2022-10-15T20:46:43.662Z,6.63
2022-10-15T20:49:17.030Z,5.90
2022-10-15T20:51:45.524Z,4.05
2022-10-15T20:54:13.990Z,6.43
2022-10-15T20:56:42.479Z,5.18
2022-10-15T20:59:10.097Z,5.20
2022-10-15T21:01:37.852Z,6.40
2022-10-15T21:04:06.101Z,6.50
2022-10-15T21:06:33.779Z,7.65
2022-10-15T21:09:01.292Z,5.38
2022-10-15T21:11:28.785Z,3.95
2022-10-15T21:13:56.449Z,6.63
2022-10-15T21:16:27.396Z,5.88
2022-10-15T21:18:56.050Z,9.63
2022-10-15T21:21:23.571Z,5.80
2022-10-15T21:23:51.127Z,5.45
2022-10-15T21:26:19.595Z,2.17
2022-10-15T21:28:47.582Z,8.75
2022-10-15T21:31:17.930Z,7.10
2022-10-15T21:33:46.077Z,3.13
2022-10-15T21:36:14.482Z,4.85
2022-10-15T21:38:42.376Z,5.05
2022-10-15T21:41:10.253Z,5.40
2022-10-15T21:43:37.795Z,10.15
2022-10-15T21:46:07.594Z,4.45
2022-10-15T21:48:36.573Z,6.88
2022-10-15T21:51:05.585Z,7.47
2022-10-15T21:53:33.920Z,8.43
2022-10-15T21:56:02.142Z,6.13
2022-10-15T21:58:29.669Z,7.80
2022-10-15T22:00:57.208Z,8.18
2022-10-15T22:03:24.978Z,8.13
2022-10-15T22:05:52.439Z,8.98
2022-10-15T22:08:19.959Z,4.47
2022-10-15T22:10:47.427Z,9.32
2022-10-15T22:13:14.888Z,5.72
2022-10-15T22:15:42.398Z,1.85
2022-10-15T22:18:09.846Z,4.13
2022-10-15T22:20:37.351Z,3.63
2022-10-15T22:23:04.872Z,6.45
2022-10-15T22:25:32.337Z,4.88
2022-10-15T22:27:59.966Z,2.72
2022-10-15T22:30:27.480Z,4.53
2022-10-15T22:32:54.958Z,1.45
2022-10-15T22:35:22.662Z,2.92
2022-10-15T22:37:50.167Z,2.90
2022-10-15T22:40:17.674Z,6.40
2022-10-15T22:42:46.290Z,4.55
2022-10-15T22:45:13.771Z,6.03
2022-10-15T22:47:41.239Z,6.30
2022-10-15T22:50:09.455Z,7.97
2022-10-15T22:52:36.908Z,6.00
2022-10-15T22:55:06.091Z,4.63
2022-10-15T22:57:33.597Z,5.75
2022-10-15T23:00:01.142Z,6.32
2022-10-15T23:02:28.681Z,8.15
2022-10-15T23:04:56.169Z,4.10
2022-10-15T23:07:23.651Z,3.60
2022-10-15T23:09:51.122Z,2.63
2022-10-15T23:12:18.596Z,3.75
2022-10-15T23:14:46.068Z,4.88
2022-10-15T23:17:13.567Z,6.32
2022-10-15T23:19:41.050Z,12.05
2022-10-15T23:22:09.595Z,4.40
2022-10-15T23:24:37.070Z,8.18
2022-10-15T23:27:04.582Z,2.22
2022-10-15T23:29:32.042Z,3.95
2022-10-15T23:31:59.538Z,8.90
2022-10-15T23:34:27.500Z,6.00
2022-10-15T23:36:55.143Z,5.50
2022-10-15T23:39:25.797Z,5.10
2022-10-15T23:41:54.268Z,8.43
2022-10-15T23:44:25.203Z,6.43
2022-10-15T23:46:52.755Z,2.97
2022-10-15T23:49:20.322Z,3.92
2022-10-15T23:51:47.803Z,2.90
2022-10-15T23:54:18.417Z,6.43
2022-10-15T23:56:47.447Z,5.97
2022-10-15T23:59:16.605Z,3.53
